weather station
Area: 11014 km2
The highest point: Tok (865 m.s.l.)
Total stations: 43
Stations online: 41
Stations offline: 2
Current weather
3°C

Meteorological map - weather stations in Středočeský

. The meteorological maps show weather information from WARIO weather stations

Weather stations Středočeský

 UpdatesNameStatusTemperatureHumidityWind speedWind direction
19.3.2019 18:52Jílové u Prahy - Borek1.4 °C72.1 %1.0 m/s NE
19.3.2019 18:52Králův Dvůr3.9 °C59.5 %1.9 m/s NW
19.3.2019 18:52Chotětov4.7 °C70.2 %0.0 m/s SE
19.3.2019 18:52Dolní Jirčany1.4 °C75.7 %0.0 m/s E
19.3.2019 18:52Davle2.5 °C64.0 %0.8 m/s W
19.3.2019 18:52Opolany4.6 °C54.0 %0.0 m/s W
19.3.2019 18:52Holubice3.5 °C64.6 %0.0 m/s E
19.3.2019 12:55Hostín u Vojkovic °C %3.3 m/s NE
19.3.2019 18:52Hovorčovice3.5 °C60.0 %0.0 m/s N
19.3.2019 18:52Sedlčany1.5 °C72.4 %0.0 m/s SE
19.3.2019 18:52Mělník5.3 °C55.6 %2.3 m/s SW
19.3.2019 18:52Jiřetice0.0 °C85.4 %0.0 m/s SW
19.3.2019 18:52Kojetice3.8 °C63.1 %1.3 m/s NW
19.3.2019 18:52Krásná Hora nad Vltavou0.5 °C66.8 %0.0 m/s W
19.3.2019 18:52Ledečky4.0 °C68.6 %2.3 m/s N
19.3.2019 18:52Libeř1.6 °C71.6 %0.8 m/s N
19.3.2019 18:52Sazená3.7 °C68.0 %3.1 m/s NW
19.3.2019 18:52Malý Újezd4.3 °C68.5 %0.0 m/s NW
19.3.2019 18:52Zdice4.1 °C60.8 %0.2 m/s N
6.3.2019 16:18Červený Újezd9.4 °C62.7 %1.7 m/s W
19.3.2019 18:51Mělník5.5 °C56.0 %1.2 m/s NW
19.3.2019 18:52Jince2.8 °C60.9 %0.7 m/s NW
19.3.2019 18:52Srby2.7 °C67.3 %1.9 m/s N
19.3.2019 18:52Kralupy nad Vltavou5.1 °C57.9 %0.0 m/s NW
19.3.2019 18:52Mrač3.7 °C61.1 %0.0 m/s N
19.3.2019 18:52Velvary6.0 °C53.4 %1.4 m/s W
19.3.2019 18:52Dolní Jirčany3.3 °C100.0 %1.9 m/s NW
19.3.2019 18:52Mladá Boleslav4.8 °C65.0 %0.0 m/s NE
19.3.2019 18:52Líbeznice3.7 °C65.1 %2.5 m/s NW
19.3.2019 18:52Mšecké Žehrovice2.1 °C68.8 %1.5 m/s NW
19.3.2019 18:52Odolena voda3.5 °C66.2 %2.9 m/s W
19.3.2019 18:52Oseček5.8 °C81.3 %0.0 m/s NE
19.3.2019 18:52Pátek4.6 °C63.5 %0.0 m/s NW
19.3.2019 18:52Husinec-Řež4.3 °C57.9 %1.1 m/s NW
19.3.2019 18:52Semice5.2 °C54.9 %1.7 m/s E
19.3.2019 18:52Slaný3.1 °C70.5 %1.0 m/s W
19.3.2019 18:52Svojetice1.1 °C69.7 %1.2 m/s SW
19.3.2019 18:52Toušice2.8 °C67.8 %0.9 m/s NW
19.3.2019 18:52Srby2.6 °C69.0 %1.6 m/s N
19.3.2019 18:52Vestec2.4 °C74.8 %1.3 m/s N
19.3.2019 18:52Vrbčany2.4 °C69.3 %0.0 m/s SW
19.3.2019 18:52Všetaty4.7 °C65.4 %2.8 m/s NW
19.3.2019 18:52Zibohlavy3.4 °C74.5 %0.0 m/s W
Email notifications
Enter your email address to subscribe to notifications about news at warioweather.com. Your email address will not be used for any purpose other than sending these emails and will not be provided to any third party. The subscription can be ended at any time.
All data are only indicative. The portal administrator has no responsibility for potentially incorrect data and related consequences. Publishing or further sharing of content from www.warioweather.com is only allowed with written consent from WANET s.r.o.